Time;durP1;ratioP1;P1;durP2;ratioP2;P2;SDS_P1;SDS_P2;PMS_P1;PMS_P2;Temp;Humidity;BMP_temperature;BMP_pressure;BME280_temperature;BME280_humidity;BME280_pressure;Samples;Min_cycle;Max_cycle;Signal;HPM_P1;HPM_P2
2022/07/06 00:01:34;;;;;;;2.95;1.00;;;13.80;99.90;;;;;;5004402;28;20252;-74
2022/07/06 00:04:01;;;;;;;4.63;1.00;;;13.70;99.90;;;;;;5021584;28;20061;-74
2022/07/06 00:06:27;;;;;;;3.15;1.13;;;13.70;99.90;;;;;;5036018;28;20128;-74
2022/07/06 00:08:53;;;;;;;3.97;1.00;;;13.70;99.90;;;;;;5041371;27;20128;-75
2022/07/06 00:11:19;;;;;;;3.83;1.20;;;13.70;99.90;;;;;;5017776;28;20036;-74
2022/07/06 00:13:45;;;;;;;4.97;1.13;;;13.70;99.90;;;;;;5021238;27;20540;-74
2022/07/06 00:16:11;;;;;;;3.33;1.02;;;13.60;99.90;;;;;;5004094;28;20529;-74
2022/07/06 00:18:37;;;;;;;4.88;1.27;;;13.60;99.90;;;;;;5019439;28;20041;-74
2022/07/06 00:21:02;;;;;;;3.95;0.93;;;13.60;99.90;;;;;;5005495;27;20052;-74
2022/07/06 00:23:28;;;;;;;6.63;1.27;;;13.60;99.90;;;;;;5036655;27;20349;-75
2022/07/06 00:25:54;;;;;;;2.80;0.98;;;13.60;99.90;;;;;;5039950;27;20130;-74
2022/07/06 00:28:19;;;;;;;9.93;1.67;;;13.60;99.90;;;;;;5023148;28;20045;-74
2022/07/06 00:30:45;;;;;;;6.43;1.00;;;13.60;99.90;;;;;;5019138;28;20048;-74
2022/07/06 00:33:11;;;;;;;6.88;1.15;;;13.60;99.90;;;;;;5017631;28;20049;-74
2022/07/06 00:35:37;;;;;;;8.73;1.08;;;13.60;99.90;;;;;;5039238;27;20044;-74
2022/07/06 00:38:03;;;;;;;4.22;1.10;;;13.60;99.90;;;;;;5019409;28;20052;-74
2022/07/06 00:40:29;;;;;;;4.25;0.90;;;13.60;99.90;;;;;;5027149;27;20143;-74
2022/07/06 00:42:56;;;;;;;5.57;1.17;;;13.60;99.90;;;;;;5027150;27;20056;-74
2022/07/06 00:45:21;;;;;;;6.03;1.30;;;13.60;99.90;;;;;;5025478;27;20040;-74
2022/07/06 00:47:47;;;;;;;5.82;1.10;;;13.60;99.90;;;;;;5028592;27;20522;-73
2022/07/06 00:50:20;;;;;;;5.03;1.17;;;13.60;99.90;;;;;;5028116;28;20044;-73
2022/07/06 00:52:59;;;;;;;4.70;1.00;;;13.60;99.90;;;;;;5036818;27;20045;-74
2022/07/06 00:55:31;;;;;;;4.07;0.90;;;13.50;99.90;;;;;;5037266;27;20506;-74
2022/07/06 00:57:57;;;;;;;6.30;1.33;;;13.50;99.90;;;;;;5026831;28;21383;-74
2022/07/06 01:00:26;;;;;;;5.53;1.08;;;13.50;99.90;;;;;;5040892;28;20033;-74
2022/07/06 01:02:52;;;;;;;2.92;0.90;;;13.50;99.90;;;;;;5038350;28;20083;-74
2022/07/06 01:05:18;;;;;;;4.63;1.02;;;13.50;99.90;;;;;;5042131;27;20485;-74
2022/07/06 01:07:46;;;;;;;4.80;1.40;;;13.50;99.90;;;;;;5042543;27;20060;-73
2022/07/06 01:10:14;;;;;;;3.40;0.90;;;13.40;99.90;;;;;;5041234;27;20046;-74
2022/07/06 01:12:41;;;;;;;6.53;1.08;;;13.40;99.90;;;;;;5032577;28;20045;-74
2022/07/06 01:15:10;;;;;;;2.95;1.02;;;13.50;99.90;;;;;;5043622;27;20583;-74
2022/07/06 01:17:38;;;;;;;5.57;1.38;;;13.50;99.90;;;;;;5038538;28;20382;-74
2022/07/06 01:20:31;;;;;;;5.78;1.27;;;13.50;99.90;;;;;;5001596;28;20053;-74
2022/07/06 01:22:59;;;;;;;5.60;1.23;;;13.50;99.90;;;;;;5002331;28;20851;-74
2022/07/06 01:25:25;;;;;;;6.70;2.03;;;13.50;99.90;;;;;;5042921;27;20045;-74
2022/07/06 01:27:51;;;;;;;5.65;1.13;;;13.50;99.90;;;;;;5036030;27;20037;-74
2022/07/06 01:30:19;;;;;;;7.65;1.63;;;13.50;99.90;;;;;;5019360;28;20076;-74
2022/07/06 01:32:45;;;;;;;5.45;1.20;;;13.50;99.90;;;;;;5045863;27;20045;-74
2022/07/06 01:35:13;;;;;;;5.65;1.60;;;13.50;99.90;;;;;;5020953;28;20049;-74
2022/07/06 01:37:39;;;;;;;6.75;1.30;;;13.50;99.90;;;;;;5001683;28;20070;-75
2022/07/06 01:40:07;;;;;;;5.03;1.20;;;13.60;99.90;;;;;;5050365;27;20045;-75
2022/07/06 01:42:34;;;;;;;6.28;1.63;;;13.60;99.90;;;;;;5037809;27;20136;-74
2022/07/06 01:45:00;;;;;;;5.13;1.20;;;13.60;99.90;;;;;;5046121;27;20450;-74
2022/07/06 01:47:25;;;;;;;6.57;1.30;;;13.60;99.90;;;;;;5022030;28;20450;-74
2022/07/06 01:49:51;;;;;;;6.35;1.30;;;13.60;99.90;;;;;;5042198;27;20532;-74
2022/07/06 01:52:17;;;;;;;6.93;0.98;;;13.60;99.90;;;;;;5046711;27;20040;-74
2022/07/06 01:54:43;;;;;;;2.95;1.27;;;13.60;99.90;;;;;;5040045;28;20045;-75
2022/07/06 01:57:09;;;;;;;3.88;1.13;;;13.60;99.90;;;;;;5007717;28;20561;-75
2022/07/06 01:59:35;;;;;;;5.00;1.10;;;13.60;99.90;;;;;;5025674;27;20123;-74
2022/07/06 02:02:01;;;;;;;6.97;1.52;;;13.60;99.90;;;;;;5023767;28;20063;-74
2022/07/06 02:04:27;;;;;;;6.25;1.13;;;13.50;99.90;;;;;;5020593;28;20093;-74
2022/07/06 02:06:55;;;;;;;5.20;1.08;;;13.50;99.90;;;;;;5041243;27;20103;-74
2022/07/06 02:09:21;;;;;;;7.60;1.40;;;13.50;99.90;;;;;;5026368;28;20485;-75
2022/07/06 02:11:47;;;;;;;5.22;1.23;;;13.50;99.90;;;;;;5043727;27;20118;-74
2022/07/06 02:14:13;;;;;;;5.32;1.10;;;13.50;99.90;;;;;;5007755;28;20139;-74
2022/07/06 02:16:38;;;;;;;5.53;1.23;;;13.50;99.90;;;;;;5011686;27;20135;-75
2022/07/06 02:19:04;;;;;;;4.65;1.20;;;13.60;99.90;;;;;;5007967;28;20051;-74
2022/07/06 02:21:30;;;;;;;4.60;1.05;;;13.60;99.90;;;;;;5022009;27;20429;-74
2022/07/06 02:23:55;;;;;;;3.97;1.10;;;13.50;99.90;;;;;;5020778;28;20193;-74
2022/07/06 02:26:21;;;;;;;4.18;1.00;;;13.50;99.90;;;;;;5026803;27;20748;-74
2022/07/06 02:28:47;;;;;;;6.32;1.00;;;13.50;99.90;;;;;;5022388;28;20036;-74
2022/07/06 02:31:13;;;;;;;3.88;1.02;;;13.50;99.90;;;;;;5022771;28;20041;-75
2022/07/06 02:33:40;;;;;;;5.25;1.23;;;13.40;99.90;;;;;;5038668;28;20569;-75
2022/07/06 02:36:06;;;;;;;9.10;1.85;;;13.50;99.90;;;;;;5048979;27;20044;-75
2022/07/06 02:38:31;;;;;;;5.57;1.13;;;13.40;99.90;;;;;;5014843;27;20029;-75
2022/07/06 02:40:58;;;;;;;14.00;3.13;;;13.40;99.90;;;;;;5030491;27;20390;-75
2022/07/06 02:43:24;;;;;;;3.75;1.05;;;13.40;99.90;;;;;;5010767;28;20157;-75
2022/07/06 02:45:50;;;;;;;5.88;1.20;;;13.40;99.90;;;;;;5030039;28;20045;-75
2022/07/06 02:48:15;;;;;;;6.43;1.25;;;13.30;99.90;;;;;;5015106;28;20655;-75
2022/07/06 02:50:41;;;;;;;8.65;1.42;;;13.30;99.90;;;;;;5021232;27;20461;-75
2022/07/06 02:53:07;;;;;;;6.03;1.33;;;13.20;99.90;;;;;;5056198;27;20477;-75
2022/07/06 02:55:32;;;;;;;5.85;1.20;;;13.20;99.90;;;;;;5022354;28;20549;-75
2022/07/06 02:57:58;;;;;;;4.40;1.02;;;13.10;99.90;;;;;;5042001;27;20648;-75
2022/07/06 03:00:24;;;;;;;4.35;1.02;;;13.10;99.90;;;;;;5042333;27;20045;-74
2022/07/06 03:02:50;;;;;;;6.95;1.27;;;13.10;99.90;;;;;;5016926;28;20336;-74
2022/07/06 03:05:16;;;;;;;5.32;1.00;;;13.20;99.90;;;;;;5025533;27;20500;-74
2022/07/06 03:07:41;;;;;;;5.53;1.13;;;13.00;99.90;;;;;;5009956;28;20124;-75
2022/07/06 03:10:07;;;;;;;7.15;1.20;;;13.00;99.90;;;;;;5047282;27;20409;-75
2022/07/06 03:12:33;;;;;;;3.90;0.70;;;13.00;99.90;;;;;;5030106;28;20061;-74
2022/07/06 03:14:59;;;;;;;7.60;1.10;;;12.90;99.90;;;;;;5026204;28;20045;-74
2022/07/06 03:17:24;;;;;;;6.40;1.10;;;12.80;99.90;;;;;;5027986;27;20041;-74
2022/07/06 03:19:50;;;;;;;8.63;1.67;;;12.70;99.90;;;;;;5048381;27;20135;-75
2022/07/06 03:22:16;;;;;;;4.93;0.95;;;12.60;99.90;;;;;;5026281;28;20515;-74
2022/07/06 03:24:42;;;;;;;4.45;0.88;;;12.60;99.90;;;;;;5043876;27;20067;-74
2022/07/06 03:27:07;;;;;;;10.05;1.05;;;12.60;99.90;;;;;;5042644;27;20458;-74
2022/07/06 03:29:33;;;;;;;7.13;1.33;;;12.50;99.90;;;;;;5031705;27;20047;-73
2022/07/06 03:31:59;;;;;;;4.45;0.90;;;12.40;99.90;;;;;;5032901;27;20048;-74
2022/07/06 03:34:25;;;;;;;6.55;1.05;;;12.40;99.90;;;;;;5046531;28;20117;-75
2022/07/06 03:36:50;;;;;;;8.30;1.20;;;12.40;99.90;;;;;;5043872;27;20033;-74
2022/07/06 03:39:16;;;;;;;2.78;0.80;;;12.20;99.90;;;;;;5010472;28;20044;-74
2022/07/06 03:41:41;;;;;;;5.20;1.00;;;12.30;99.90;;;;;;5027587;27;20075;-75
2022/07/06 03:44:07;;;;;;;2.47;0.90;;;12.20;99.90;;;;;;5027902;28;20037;-75
2022/07/06 03:46:33;;;;;;;8.60;1.20;;;12.20;99.90;;;;;;5024405;28;20049;-74
2022/07/06 03:48:59;;;;;;;5.80;1.20;;;12.10;99.90;;;;;;5028651;27;20413;-74
2022/07/06 03:51:24;;;;;;;4.10;1.15;;;12.10;99.90;;;;;;5048203;27;20463;-75
2022/07/06 03:53:50;;;;;;;7.40;1.13;;;12.00;99.90;;;;;;5028212;27;20060;-74
2022/07/06 03:56:28;;;;;;;5.90;1.00;;;12.10;99.90;;;;;;5027498;28;20072;-75
2022/07/06 03:58:57;;;;;;;5.35;1.52;;;12.10;99.90;;;;;;5040817;27;20085;-74
2022/07/06 04:01:23;;;;;;;6.45;1.00;;;12.00;99.90;;;;;;5042959;28;20033;-75
2022/07/06 04:03:49;;;;;;;5.40;1.10;;;12.00;99.90;;;;;;5045695;27;20045;-75
2022/07/06 04:06:15;;;;;;;5.55;1.00;;;12.10;99.90;;;;;;5060757;28;20037;-75
2022/07/06 04:08:41;;;;;;;4.93;0.98;;;12.10;99.90;;;;;;5044971;27;20036;-75
2022/07/06 04:11:07;;;;;;;3.72;0.88;;;12.10;99.90;;;;;;5008966;28;20443;-74
2022/07/06 04:13:33;;;;;;;6.47;0.85;;;12.10;99.90;;;;;;5023402;28;20037;-75
2022/07/06 04:15:59;;;;;;;7.88;1.17;;;12.10;99.90;;;;;;5044416;27;20044;-74
2022/07/06 04:18:25;;;;;;;7.70;0.93;;;12.20;99.90;;;;;;5043242;28;20060;-75
2022/07/06 04:20:50;;;;;;;5.07;0.93;;;12.30;99.90;;;;;;5046406;27;20039;-74
2022/07/06 04:23:16;;;;;;;6.63;1.00;;;12.30;99.90;;;;;;5029622;27;20083;-75
2022/07/06 04:25:42;;;;;;;5.57;1.10;;;12.40;99.90;;;;;;5012533;27;20393;-75
2022/07/06 04:28:07;;;;;;;7.60;1.27;;;12.40;99.90;;;;;;5051352;27;20041;-76
2022/07/06 04:30:33;;;;;;;5.22;1.10;;;12.50;99.90;;;;;;5033412;27;20045;-76
2022/07/06 04:32:59;;;;;;;6.93;1.20;;;12.60;99.90;;;;;;5034469;27;20513;-76
2022/07/06 04:35:25;;;;;;;5.72;0.68;;;12.60;99.90;;;;;;5051026;27;20093;-74
2022/07/06 04:37:50;;;;;;;5.40;1.05;;;12.70;99.90;;;;;;5052331;27;20079;-75
2022/07/06 04:40:16;;;;;;;6.85;1.17;;;12.70;99.90;;;;;;5025176;28;20041;-75
2022/07/06 04:42:42;;;;;;;6.60;0.90;;;12.80;99.90;;;;;;5029445;27;20052;-74
2022/07/06 04:45:08;;;;;;;7.13;1.10;;;12.80;99.90;;;;;;5012045;28;20048;-75
2022/07/06 04:47:35;;;;;;;4.88;0.98;;;12.90;99.90;;;;;;5024726;28;20429;-75
2022/07/06 04:50:02;;;;;;;8.55;1.38;;;12.90;99.90;;;;;;5026989;27;20045;-75
2022/07/06 04:52:28;;;;;;;7.35;0.90;;;13.00;99.90;;;;;;5028453;28;20077;-74
2022/07/06 04:54:56;;;;;;;5.40;1.05;;;13.00;99.90;;;;;;5053606;27;20072;-77
2022/07/06 04:57:25;;;;;;;4.30;1.30;;;13.10;99.90;;;;;;5028643;27;20048;-75
2022/07/06 04:59:51;;;;;;;5.07;1.08;;;13.10;99.90;;;;;;5066271;27;20070;-75
2022/07/06 05:02:17;;;;;;;3.85;0.80;;;13.10;99.90;;;;;;5060312;27;20545;-75
2022/07/06 05:04:43;;;;;;;10.75;1.75;;;13.20;99.90;;;;;;5027548;27;20135;-75
2022/07/06 05:07:09;;;;;;;6.13;1.02;;;13.20;99.90;;;;;;5031421;27;20048;-74
2022/07/06 05:09:34;;;;;;;9.10;1.13;;;13.20;99.90;;;;;;5042905;27;20045;-74
2022/07/06 05:12:00;;;;;;;6.53;1.23;;;13.20;99.90;;;;;;5035689;27;20139;-74
2022/07/06 05:14:26;;;;;;;5.75;1.00;;;13.30;99.90;;;;;;5028720;27;20487;-74
2022/07/06 05:16:51;;;;;;;3.67;1.15;;;13.20;99.90;;;;;;5014242;27;20048;-73
2022/07/06 05:19:17;;;;;;;8.23;1.10;;;13.30;99.90;;;;;;5026277;27;20337;-74
2022/07/06 05:21:43;;;;;;;6.35;1.10;;;13.20;99.90;;;;;;5025545;27;20041;-74
2022/07/06 05:24:08;;;;;;;4.95;0.90;;;13.20;99.90;;;;;;5030937;27;20045;-73
2022/07/06 05:26:34;;;;;;;8.07;1.30;;;13.10;99.90;;;;;;5034830;27;20140;-72
2022/07/06 05:29:00;;;;;;;5.30;1.00;;;13.10;99.90;;;;;;5043434;27;20120;-73
2022/07/06 05:31:26;;;;;;;6.45;0.90;;;13.10;99.90;;;;;;5056729;27;20085;-72
2022/07/06 05:33:51;;;;;;;5.82;1.00;;;13.20;99.90;;;;;;5033036;27;20045;-72
2022/07/06 05:36:18;;;;;;;5.38;0.90;;;13.20;99.90;;;;;;5007401;28;20052;-72
2022/07/06 05:38:44;;;;;;;4.22;0.77;;;13.40;99.90;;;;;;5025895;27;20049;-72
2022/07/06 05:41:09;;;;;;;5.28;1.00;;;13.60;99.90;;;;;;5036988;27;20048;-73
2022/07/06 05:43:36;;;;;;;5.28;1.00;;;13.80;99.90;;;;;;5036632;27;20098;-73
2022/07/06 05:46:03;;;;;;;8.27;1.02;;;13.90;99.90;;;;;;5020651;27;20518;-73
2022/07/06 05:51:12;;;;;;;3.15;0.85;;;14.10;99.90;;;;;;5017564;27;21311;-74
2022/07/06 05:53:38;;;;;;;2.88;0.73;;;14.20;99.90;;;;;;5020970;27;20057;-74
2022/07/06 05:56:04;;;;;;;5.28;0.90;;;14.20;99.90;;;;;;5048152;27;20132;-74
2022/07/06 05:58:30;;;;;;;5.22;0.90;;;14.30;99.90;;;;;;5034270;27;20072;-74
2022/07/06 06:00:56;;;;;;;3.47;0.98;;;14.30;99.90;;;;;;5025661;27;20048;-74
2022/07/06 06:03:21;;;;;;;2.97;0.77;;;14.30;99.90;;;;;;5017809;27;20048;-74
2022/07/06 06:05:47;;;;;;;4.13;0.90;;;14.20;99.90;;;;;;5042594;27;20511;-74
2022/07/06 06:08:13;;;;;;;4.50;0.68;;;14.10;99.90;;;;;;5039487;27;20068;-74
2022/07/06 06:10:39;;;;;;;6.47;0.82;;;14.30;99.90;;;;;;5021760;27;20117;-73
2022/07/06 06:13:04;;;;;;;4.65;0.75;;;14.20;99.90;;;;;;5041999;27;20140;-72
2022/07/06 06:15:33;;;;;;;5.95;1.10;;;14.30;99.90;;;;;;5021027;27;20072;-71
2022/07/06 06:17:59;;;;;;;2.15;0.60;;;14.30;99.90;;;;;;5021819;27;20048;-73
2022/07/06 06:20:25;;;;;;;4.05;0.60;;;14.40;99.90;;;;;;5024160;27;20029;-73
2022/07/06 06:22:51;;;;;;;4.75;0.90;;;14.50;99.90;;;;;;5037674;27;20029;-73
2022/07/06 06:25:19;;;;;;;6.15;0.90;;;14.40;99.90;;;;;;5033819;27;21000;-73
2022/07/06 06:27:45;;;;;;;4.90;0.88;;;14.50;99.90;;;;;;5024510;27;21124;-73
2022/07/06 06:30:12;;;;;;;7.03;0.80;;;14.50;99.90;;;;;;5016517;28;20382;-73
2022/07/06 06:32:39;;;;;;;5.60;1.00;;;14.60;99.90;;;;;;5028518;27;20032;-73
2022/07/06 06:35:06;;;;;;;4.47;0.90;;;14.70;99.90;;;;;;5019870;28;20052;-73
2022/07/06 06:37:32;;;;;;;8.40;0.98;;;14.80;99.90;;;;;;5007372;28;20033;-72
2022/07/06 06:39:58;;;;;;;7.80;1.13;;;15.00;99.90;;;;;;5039314;27;20410;-73
2022/07/06 06:42:24;;;;;;;5.28;1.02;;;15.20;99.90;;;;;;5044421;27;20045;-73
2022/07/06 06:44:49;;;;;;;5.68;1.13;;;15.40;99.90;;;;;;5044533;27;20037;-73
2022/07/06 06:47:15;;;;;;;6.75;0.85;;;15.50;99.90;;;;;;5012879;28;20074;-72
2022/07/06 06:49:41;;;;;;;7.15;1.10;;;15.60;99.90;;;;;;5039583;27;20457;-73
2022/07/06 06:52:06;;;;;;;7.82;1.35;;;15.70;99.90;;;;;;5006303;28;20045;-74
2022/07/06 06:54:32;;;;;;;7.97;1.15;;;15.80;99.90;;;;;;5034439;27;20130;-73
2022/07/06 06:56:58;;;;;;;7.38;1.30;;;15.90;99.90;;;;;;5020332;27;20530;-73
2022/07/06 06:59:23;;;;;;;5.68;1.10;;;15.90;99.90;;;;;;5020579;28;20132;-73
2022/07/06 07:01:49;;;;;;;5.57;0.88;;;15.90;99.90;;;;;;5036062;27;20105;-73
2022/07/06 07:04:15;;;;;;;5.63;0.90;;;16.00;99.90;;;;;;5026276;27;20044;-74
2022/07/06 07:06:40;;;;;;;7.22;1.30;;;16.00;99.90;;;;;;5002060;28;20037;-74
2022/07/06 07:09:06;;;;;;;6.68;1.05;;;16.10;99.90;;;;;;5021943;28;20498;-74
2022/07/06 07:11:32;;;;;;;7.65;1.00;;;16.20;99.90;;;;;;5040661;28;20037;-73
2022/07/06 07:13:57;;;;;;;6.18;0.80;;;16.30;99.90;;;;;;5001267;28;20045;-73
2022/07/06 07:16:26;;;;;;;9.77;1.13;;;16.60;99.90;;;;;;5046535;28;20464;-75
2022/07/06 07:18:52;;;;;;;9.10;1.17;;;16.90;99.90;;;;;;5014686;28;20125;-73
2022/07/06 07:21:18;;;;;;;7.03;1.08;;;17.20;99.90;;;;;;5032202;27;20505;-74
2022/07/06 07:23:44;;;;;;;8.15;1.10;;;17.40;99.90;;;;;;5019360;28;20595;-73
2022/07/06 07:26:10;;;;;;;2.90;0.60;;;17.60;99.90;;;;;;5037632;27;20063;-73
2022/07/06 07:28:35;;;;;;;5.90;1.17;;;18.40;99.90;;;;;;5020316;28;20394;-74
2022/07/06 07:31:01;;;;;;;8.52;1.15;;;18.90;99.90;;;;;;5036362;28;20041;-75
2022/07/06 07:33:27;;;;;;;6.55;0.73;;;19.30;99.90;;;;;;5022032;28;20049;-75
2022/07/06 07:35:55;;;;;;;6.25;0.75;;;19.50;99.90;;;;;;5021942;28;20052;-74
2022/07/06 07:38:21;;;;;;;3.10;0.70;;;19.40;99.90;;;;;;5039133;28;20120;-75
2022/07/06 07:40:47;;;;;;;3.05;0.65;;;19.40;99.90;;;;;;5020830;28;20120;-75
2022/07/06 07:43:13;;;;;;;3.17;0.65;;;19.80;99.90;;;;;;5022635;28;20037;-74
2022/07/06 07:45:39;;;;;;;2.97;0.50;;;20.00;99.90;;;;;;5002694;28;20055;-75
2022/07/06 07:48:05;;;;;;;1.98;0.50;;;20.20;99.90;;;;;;5002356;28;20057;-74
2022/07/06 07:50:31;;;;;;;6.13;1.80;;;20.30;99.90;;;;;;5005203;28;20516;-73
2022/07/06 07:52:56;;;;;;;4.00;0.70;;;20.20;99.90;;;;;;5018729;27;20037;-75
2022/07/06 07:55:22;;;;;;;5.57;0.70;;;20.20;99.90;;;;;;5006775;28;20041;-73
2022/07/06 07:57:48;;;;;;;3.70;0.85;;;20.10;99.90;;;;;;5000110;28;20029;-72
2022/07/06 08:00:14;;;;;;;3.58;0.60;;;20.10;99.90;;;;;;4999093;28;20344;-74
2022/07/06 08:02:40;;;;;;;5.35;0.80;;;20.10;99.90;;;;;;5028924;28;21708;-74
2022/07/06 08:05:06;;;;;;;3.58;0.60;;;20.20;99.90;;;;;;5033871;27;20569;-74
2022/07/06 08:07:32;;;;;;;3.35;0.73;;;20.30;99.90;;;;;;5027608;27;20041;-73
2022/07/06 08:09:58;;;;;;;2.92;0.50;;;20.50;99.90;;;;;;5003894;28;20045;-73
2022/07/06 08:12:25;;;;;;;1.52;0.40;;;20.70;99.90;;;;;;5020922;28;20053;-71
2022/07/06 08:14:51;;;;;;;5.95;0.60;;;20.80;99.90;;;;;;5001250;28;20516;-72
2022/07/06 08:17:18;;;;;;;3.97;0.68;;;20.90;99.90;;;;;;5036806;28;20072;-72
2022/07/06 08:19:44;;;;;;;6.25;0.68;;;21.00;99.90;;;;;;5036365;27;20137;-72
2022/07/06 08:22:10;;;;;;;3.42;0.85;;;20.90;99.90;;;;;;5023578;28;20090;-73
2022/07/06 08:24:36;;;;;;;3.72;0.60;;;20.60;99.90;;;;;;5004725;27;20044;-74
2022/07/06 08:27:03;;;;;;;3.75;0.50;;;20.40;99.90;;;;;;5021096;27;20045;-73
2022/07/06 08:29:29;;;;;;;8.45;0.90;;;20.20;99.90;;;;;;5039530;27;20105;-73
2022/07/06 08:31:56;;;;;;;7.50;0.80;;;19.90;99.90;;;;;;5039496;27;20135;-72
2022/07/06 08:34:23;;;;;;;3.55;0.60;;;20.00;99.90;;;;;;5019945;28;20568;-72
2022/07/06 08:36:49;;;;;;;6.47;0.88;;;20.20;99.90;;;;;;5056730;27;20619;-72
2022/07/06 08:39:15;;;;;;;4.80;1.02;;;20.50;99.90;;;;;;5021646;27;20045;-73
2022/07/06 08:41:47;;;;;;;4.55;0.93;;;20.80;99.90;;;;;;5041958;27;20059;-73
2022/07/06 08:44:16;;;;;;;7.03;1.00;;;21.00;99.90;;;;;;5024861;28;20326;-73
2022/07/06 08:46:43;;;;;;;5.05;0.77;;;21.00;99.90;;;;;;5051872;28;20140;-73
2022/07/06 08:49:13;;;;;;;4.90;0.98;;;20.80;99.90;;;;;;5053419;27;20421;-73
2022/07/06 08:51:40;;;;;;;3.55;0.68;;;20.40;99.90;;;;;;5021199;28;20505;-73
2022/07/06 08:54:07;;;;;;;4.10;0.70;;;20.10;99.90;;;;;;5023219;28;20520;-72
2022/07/06 08:56:33;;;;;;;6.28;0.98;;;19.80;99.90;;;;;;5020689;28;20060;-72
2022/07/06 08:58:59;;;;;;;2.85;0.63;;;19.80;99.90;;;;;;5026293;27;20395;-72
2022/07/06 09:01:25;;;;;;;10.18;1.55;;;19.60;99.90;;;;;;5044076;27;20048;-72
2022/07/06 09:03:50;;;;;;;6.80;1.27;;;19.50;99.90;;;;;;5024074;27;20389;-73
2022/07/06 09:06:22;;;;;;;5.63;0.80;;;19.70;99.90;;;;;;5042013;28;20504;-73
2022/07/06 09:08:49;;;;;;;4.35;0.70;;;20.00;99.90;;;;;;5058719;27;20052;-72
2022/07/06 09:11:15;;;;;;;5.53;0.90;;;20.00;99.90;;;;;;5024135;27;20045;-72
2022/07/06 09:13:41;;;;;;;5.75;0.60;;;19.90;99.90;;;;;;5010742;28;20476;-73
2022/07/06 09:16:15;;;;;;;3.00;0.60;;;19.80;99.90;;;;;;5030917;27;20087;-72
2022/07/06 09:18:44;;;;;;;4.53;0.75;;;19.60;99.90;;;;;;5010084;28;20449;-72
2022/07/06 09:21:11;;;;;;;4.60;0.70;;;19.40;99.90;;;;;;5044091;27;20511;-72
2022/07/06 09:23:37;;;;;;;4.00;1.10;;;19.40;99.90;;;;;;5042668;28;20041;-72
2022/07/06 09:26:05;;;;;;;5.65;0.70;;;19.50;99.90;;;;;;5040521;27;20133;-72
2022/07/06 09:28:44;;;;;;;3.08;0.70;;;19.90;99.90;;;;;;5059170;28;20052;-72
2022/07/06 09:31:11;;;;;;;6.22;1.25;;;20.60;99.90;;;;;;5005454;28;20045;-72
2022/07/06 09:33:37;;;;;;;3.53;0.68;;;21.00;99.90;;;;;;5056690;27;20407;-72
2022/07/06 09:36:03;;;;;;;7.28;0.82;;;21.40;99.90;;;;;;5024569;28;20052;-73
2022/07/06 09:38:29;;;;;;;4.45;0.50;;;21.40;99.90;;;;;;5022347;28;20534;-72
2022/07/06 09:40:55;;;;;;;4.35;0.80;;;21.10;99.90;;;;;;5025584;27;20084;-73
2022/07/06 09:43:22;;;;;;;3.75;0.80;;;20.70;99.90;;;;;;5041324;28;20044;-72
2022/07/06 09:45:53;;;;;;;3.65;0.75;;;20.70;99.90;;;;;;5040120;27;20037;-72
2022/07/06 09:48:21;;;;;;;4.22;0.70;;;21.10;99.90;;;;;;5023703;28;20255;-71
2022/07/06 09:50:55;;;;;;;6.07;0.80;;;21.50;99.90;;;;;;5022914;28;20138;-72
2022/07/06 09:53:23;;;;;;;4.10;0.50;;;21.80;99.90;;;;;;5027172;27;20029;-72
2022/07/06 09:55:54;;;;;;;3.15;0.63;;;21.80;99.90;;;;;;5024760;27;20128;-72
2022/07/06 09:58:22;;;;;;;5.07;0.70;;;21.60;99.90;;;;;;5023402;28;20041;-72
2022/07/06 10:00:49;;;;;;;7.38;1.35;;;21.40;99.90;;;;;;5022667;27;20444;-72
2022/07/06 10:03:16;;;;;;;3.97;0.80;;;21.40;99.90;;;;;;5043289;27;20057;-73
2022/07/06 10:05:47;;;;;;;4.85;0.80;;;21.70;99.90;;;;;;5025621;27;20442;-71
2022/07/06 10:08:14;;;;;;;5.72;0.80;;;22.10;99.90;;;;;;5026016;28;20131;-71
2022/07/06 10:10:41;;;;;;;3.50;0.68;;;22.60;99.90;;;;;;5028275;27;20516;-73
2022/07/06 10:13:08;;;;;;;4.93;0.80;;;23.00;99.90;;;;;;5040778;28;20045;-72
2022/07/06 10:15:37;;;;;;;5.40;0.57;;;23.40;99.90;;;;;;5032783;27;20051;-73
2022/07/06 10:18:05;;;;;;;3.78;0.70;;;23.60;99.90;;;;;;5044833;27;20331;-72
2022/07/06 10:20:39;;;;;;;6.18;1.35;;;23.70;99.90;;;;;;5010548;28;20094;-72
2022/07/06 10:23:07;;;;;;;4.35;0.60;;;23.70;99.90;;;;;;5026249;28;20790;-72
2022/07/06 10:25:33;;;;;;;4.30;0.77;;;23.70;99.60;;;;;;5060431;28;20049;-71
2022/07/06 10:27:59;;;;;;;5.20;1.35;;;23.50;99.90;;;;;;5044409;28;20398;-73
2022/07/06 10:30:27;;;;;;;4.30;0.80;;;23.50;99.60;;;;;;5034215;27;20113;-73
2022/07/06 10:32:56;;;;;;;5.82;0.80;;;23.60;99.90;;;;;;5043266;28;20084;-72
2022/07/06 10:35:21;;;;;;;9.30;0.95;;;23.70;99.50;;;;;;5044719;28;20446;-74
2022/07/06 10:38:04;;;;;;;7.22;0.80;;;23.70;99.50;;;;;;5026726;28;20041;-73
2022/07/06 10:43:30;;;;;;;4.85;0.70;;;24.00;99.90;;;;;;5050684;27;20097;-74
2022/07/06 10:45:56;;;;;;;5.85;0.80;;;24.30;99.00;;;;;;5024387;28;20045;-73
2022/07/06 10:48:23;;;;;;;6.13;0.68;;;24.40;95.10;;;;;;5008729;27;20160;-73
2022/07/06 10:50:54;;;;;;;5.13;0.90;;;24.00;96.60;;;;;;5014353;27;21138;-73
2022/07/06 10:53:24;;;;;;;2.47;0.60;;;23.60;96.70;;;;;;5051007;27;20052;-73
2022/07/06 10:55:53;;;;;;;6.22;0.82;;;23.40;97.00;;;;;;5012024;27;20561;-73
2022/07/06 10:58:50;;;;;;;5.72;0.88;;;23.20;96.70;;;;;;5048432;27;20518;-75
2022/07/06 11:01:17;;;;;;;4.50;0.68;;;22.70;96.10;;;;;;5040321;27;20490;-72
2022/07/06 11:03:47;;;;;;;5.93;0.82;;;22.30;96.90;;;;;;5024595;27;20081;-74
2022/07/06 11:06:16;;;;;;;4.15;0.80;;;22.40;97.60;;;;;;5019525;27;20506;-72
2022/07/06 11:08:55;;;;;;;4.95;0.90;;;22.80;98.10;;;;;;5009137;27;20049;-73
2022/07/06 11:11:33;;;;;;;4.45;0.77;;;23.10;97.40;;;;;;5024883;27;20037;-73
2022/07/06 11:14:09;;;;;;;4.07;0.88;;;23.10;96.30;;;;;;5035409;27;20065;-73
2022/07/06 11:16:44;;;;;;;3.58;0.75;;;22.80;95.90;;;;;;5023284;27;20162;-72
2022/07/06 11:19:18;;;;;;;4.93;0.80;;;22.50;96.30;;;;;;5009714;28;20677;-73
2022/07/06 11:21:48;;;;;;;4.13;0.60;;;22.10;96.90;;;;;;5025671;27;20045;-72
2022/07/06 11:24:16;;;;;;;5.47;0.50;;;21.90;97.00;;;;;;5054332;27;20040;-72
2022/07/06 11:26:46;;;;;;;3.38;0.60;;;22.00;97.30;;;;;;5008615;28;20038;-73
2022/07/06 11:29:12;;;;;;;3.17;0.80;;;22.20;98.00;;;;;;5029025;28;20412;-74
2022/07/06 11:31:43;;;;;;;4.75;0.80;;;22.20;97.60;;;;;;5024265;27;20480;-73
2022/07/06 11:34:11;;;;;;;3.58;0.80;;;21.90;97.40;;;;;;5010860;28;20080;-71
2022/07/06 11:36:38;;;;;;;4.55;0.55;;;22.10;97.60;;;;;;5065581;27;20046;-72
2022/07/06 11:39:07;;;;;;;2.25;0.77;;;22.40;96.60;;;;;;5013637;28;20056;-73
2022/07/06 11:41:33;;;;;;;3.17;0.60;;;22.70;97.50;;;;;;5031959;27;20481;-73
2022/07/06 11:44:00;;;;;;;3.35;0.60;;;23.00;97.20;;;;;;5022474;28;20037;-75
2022/07/06 11:46:36;;;;;;;4.20;0.50;;;23.10;96.90;;;;;;5044685;28;20040;-75
2022/07/06 11:49:07;;;;;;;4.40;1.17;;;23.10;96.90;;;;;;5037009;27;20041;-74
2022/07/06 11:51:34;;;;;;;;;;;23.30;96.10;;;;;;5046771;27;20127;-73
2022/07/06 11:54:01;;;;;;;2.28;0.50;;;23.60;95.50;;;;;;5042695;28;20361;-75
2022/07/06 11:56:28;;;;;;;3.50;0.98;;;23.80;96.30;;;;;;5043375;28;20074;-74
2022/07/06 11:58:59;;;;;;;3.72;0.65;;;23.90;94.50;;;;;;5042434;28;20151;-75
2022/07/06 12:01:27;;;;;;;3.75;2.05;;;23.80;95.30;;;;;;5041969;28;20041;-75
2022/07/06 12:03:58;;;;;;;6.30;1.10;;;23.80;95.40;;;;;;5023756;28;20584;-75
2022/07/06 12:06:25;;;;;;;9.13;1.33;;;24.00;95.50;;;;;;5032579;27;20517;-75
2022/07/06 12:08:55;;;;;;;4.60;0.90;;;24.20;95.20;;;;;;5042471;27;20071;-77
2022/07/06 12:11:26;;;;;;;10.02;1.00;;;24.10;95.30;;;;;;5033600;27;20060;-75
2022/07/06 12:13:56;;;;;;;3.22;0.85;;;24.20;95.30;;;;;;5033949;28;20058;-74
2022/07/06 12:16:29;;;;;;;4.85;0.90;;;24.00;93.60;;;;;;5035238;28;20044;-76
2022/07/06 12:18:54;;;;;;;5.15;1.00;;;23.90;94.50;;;;;;5040016;27;20076;-76
2022/07/06 12:21:23;;;;;;;4.00;0.70;;;23.80;93.90;;;;;;5039341;28;20131;-75
2022/07/06 12:23:51;;;;;;;3.40;0.85;;;23.50;93.50;;;;;;5039180;28;20521;-73
2022/07/06 12:26:19;;;;;;;2.63;0.80;;;23.20;93.60;;;;;;5005392;28;20056;-74
2022/07/06 12:29:05;;;;;;;2.78;0.73;;;23.20;95.20;;;;;;5040522;28;20044;-75
2022/07/06 12:31:36;;;;;;;9.45;1.70;;;23.40;94.60;;;;;;5020243;28;20060;-76
2022/07/06 12:34:02;;;;;;;;;;;23.10;94.10;;;;;;5029298;28;20152;-74
2022/07/06 12:36:28;;;;;;;6.55;1.00;;;23.10;94.20;;;;;;5022853;28;19925;-75
2022/07/06 12:38:54;;;;;;;2.95;0.80;;;23.00;94.30;;;;;;5037184;28;20037;-75
2022/07/06 12:41:27;;;;;;;3.70;0.80;;;22.90;94.40;;;;;;5022158;28;20053;-74
2022/07/06 12:44:04;;;;;;;5.50;0.90;;;22.70;93.90;;;;;;5038329;28;20043;-73
2022/07/06 12:46:34;;;;;;;4.20;0.70;;;22.50;93.60;;;;;;5022236;28;20045;-73
2022/07/06 12:49:01;;;;;;;3.22;0.65;;;22.30;93.40;;;;;;5005472;28;20138;-73
2022/07/06 12:51:27;;;;;;;3.90;0.80;;;22.10;94.60;;;;;;5037287;28;20041;-74
2022/07/06 12:54:11;;;;;;;8.50;2.05;;;22.00;94.70;;;;;;5004589;28;20466;-75